Time;durP1;ratioP1;P1;durP2;ratioP2;P2;SDS_P1;SDS_P2;PMS_P1;PMS_P2;Temp;Humidity;BMP_temperature;BMP_pressure;BME280_temperature;BME280_humidity;BME280_pressure;Samples;Min_cycle;Max_cycle;Signal;HPM_P1;HPM_P2
2022/04/16 00:00:48;;;;;;;20.83;11.10;;;;;;;5.76;100.00;99889.34;4202898;28;20048;-71
2022/04/16 00:02:49;;;;;;;20.63;11.40;;;;;;;5.78;99.83;99880.81;4209714;28;20535;-71
2022/04/16 00:04:49;;;;;;;15.27;10.40;;;;;;;5.59;100.00;99886.47;4207272;27;20082;-71
2022/04/16 00:06:50;;;;;;;21.27;10.43;;;;;;;5.61;99.76;99885.03;4204722;28;20032;-71
2022/04/16 00:08:50;;;;;;;19.40;11.18;;;;;;;5.51;100.00;99877.06;4206691;28;20059;-71
2022/04/16 00:10:52;;;;;;;16.80;10.43;;;;;;;5.51;100.00;99890.78;4208258;28;20196;-71
2022/04/16 00:12:52;;;;;;;16.35;10.65;;;;;;;5.47;100.00;99887.03;4209056;28;20151;-71
2022/04/16 00:14:52;;;;;;;18.67;10.88;;;;;;;5.50;100.00;99891.91;4212375;28;20573;-71
2022/04/16 00:16:53;;;;;;;18.20;10.68;;;;;;;5.47;100.00;99881.56;4209709;28;20502;-71
2022/04/16 00:18:56;;;;;;;17.88;10.73;;;;;;;5.46;100.00;99890.91;4211506;27;20602;-71
2022/04/16 00:20:57;;;;;;;17.83;11.02;;;;;;;5.46;100.00;99896.41;4205976;28;20048;-71
2022/04/16 00:22:58;;;;;;;18.73;9.77;;;;;;;5.46;100.00;99899.16;4205910;28;20044;-71
2022/04/16 00:24:58;;;;;;;16.15;9.63;;;;;;;5.43;100.00;99893.44;4208575;28;20070;-71
2022/04/16 00:26:58;;;;;;;17.92;10.40;;;;;;;5.35;100.00;99895.00;4203892;28;20161;-71
2022/04/16 00:28:59;;;;;;;18.50;10.48;;;;;;;5.34;100.00;99899.66;4209064;27;20040;-71
2022/04/16 00:30:59;;;;;;;18.63;10.95;;;;;;;5.34;100.00;99901.59;4210935;27;20043;-71
2022/04/16 00:33:00;;;;;;;21.10;11.55;;;;;;;5.30;100.00;99897.88;4205845;28;20460;-71
2022/04/16 00:35:04;;;;;;;20.08;11.45;;;;;;;5.30;100.00;99904.16;4205749;28;20487;-71
2022/04/16 00:37:04;;;;;;;19.52;11.13;;;;;;;5.29;100.00;99898.97;4205216;28;20422;-71
2022/04/16 00:39:04;;;;;;;21.70;11.50;;;;;;;5.32;100.00;99901.91;4212364;27;20441;-71
2022/04/16 00:41:05;;;;;;;18.90;10.63;;;;;;;5.33;100.00;99908.22;4205901;28;20447;-71
2022/04/16 00:43:06;;;;;;;20.65;11.50;;;;;;;5.26;100.00;99908.63;4209842;28;20036;-71
2022/04/16 00:45:07;;;;;;;23.13;12.00;;;;;;;5.22;100.00;99902.16;4207675;28;20044;-71
2022/04/16 00:47:07;;;;;;;21.20;11.68;;;;;;;5.20;100.00;99911.78;4204741;28;20032;-71
2022/04/16 00:49:08;;;;;;;20.27;11.00;;;;;;;5.19;100.00;99913.72;4215530;27;20096;-71
2022/04/16 00:51:09;;;;;;;19.17;10.23;;;;;;;5.15;100.00;99907.25;4205812;28;20052;-71
2022/04/16 00:53:14;;;;;;;18.20;10.73;;;;;;;5.20;100.00;99925.50;4205941;28;20472;-71
2022/04/16 00:55:14;;;;;;;21.40;10.98;;;;;;;5.13;100.00;99920.47;4205184;28;20039;-71
2022/04/16 00:57:15;;;;;;;24.50;11.65;;;;;;;5.12;100.00;99915.25;4204102;28;20457;-71
2022/04/16 00:59:16;;;;;;;19.80;10.65;;;;;;;5.06;100.00;99918.13;4205518;28;20097;-71
2022/04/16 01:01:16;;;;;;;18.45;10.02;;;;;;;5.04;100.00;99922.28;4205612;28;20500;-71
2022/04/16 01:03:17;;;;;;;18.20;10.32;;;;;;;5.03;100.00;99913.22;4205004;28;20482;-71
2022/04/16 01:05:19;;;;;;;18.05;9.88;;;;;;;5.01;100.00;99911.91;4208762;27;20075;-72
2022/04/16 01:07:24;;;;;;;17.20;8.88;;;;;;;5.00;100.00;99916.59;4213894;27;20460;-71
2022/04/16 01:09:24;;;;;;;16.73;8.48;;;;;;;5.00;99.96;99918.53;4205506;28;20040;-71
2022/04/16 01:11:25;;;;;;;15.40;8.32;;;;;;;4.98;99.48;99920.78;4205853;28;20057;-71
2022/04/16 01:13:25;;;;;;;17.52;9.25;;;;;;;4.99;100.00;99936.91;4210614;27;20125;-71
2022/04/16 01:15:28;;;;;;;15.32;9.27;;;;;;;4.99;99.93;99931.44;4203728;28;20040;-71
2022/04/16 01:17:28;;;;;;;18.20;9.07;;;;;;;4.97;99.70;99933.69;4210207;27;20417;-71
2022/04/16 01:19:28;;;;;;;13.82;7.72;;;;;;;5.00;99.61;99935.00;4211440;28;20395;-71
2022/04/16 01:21:29;;;;;;;13.70;8.45;;;;;;;4.96;99.35;99926.53;4206308;28;20064;-71
2022/04/16 01:23:30;;;;;;;21.13;10.07;;;;;;;4.91;100.00;99932.16;4205634;28;20090;-71
2022/04/16 01:25:32;;;;;;;17.05;9.68;;;;;;;4.88;100.00;99924.53;4204704;28;20089;-71
2022/04/16 01:27:32;;;;;;;17.90;9.27;;;;;;;4.89;100.00;99926.16;4203137;28;20040;-71
2022/04/16 01:29:33;;;;;;;15.65;8.75;;;;;;;4.87;100.00;99928.38;4205258;28;20288;-71
2022/04/16 01:31:33;;;;;;;15.25;8.68;;;;;;;4.86;100.00;99929.50;4206268;28;20036;-71
2022/04/16 01:33:33;;;;;;;13.38;8.10;;;;;;;4.91;99.81;99928.59;4209252;27;20387;-71
2022/04/16 01:35:34;;;;;;;17.67;9.75;;;;;;;4.90;100.00;99935.19;4204853;28;20047;-71
2022/04/16 01:37:35;;;;;;;16.17;9.10;;;;;;;4.91;100.00;99929.41;4207681;28;20456;-71
2022/04/16 01:39:35;;;;;;;18.48;9.40;;;;;;;4.91;100.00;99932.16;4209687;27;20656;-71
2022/04/16 01:41:36;;;;;;;19.77;9.85;;;;;;;4.91;100.00;99929.41;4207592;27;20047;-71
2022/04/16 01:43:37;;;;;;;16.50;8.52;;;;;;;4.84;100.00;99922.69;4204949;28;20056;-71
2022/04/16 01:45:37;;;;;;;17.67;9.55;;;;;;;4.83;100.00;99924.63;4204538;28;20131;-71
2022/04/16 01:47:38;;;;;;;16.98;9.57;;;;;;;4.82;100.00;99933.16;4203647;28;20040;-71
2022/04/16 01:49:39;;;;;;;18.73;11.10;;;;;;;4.84;100.00;99936.41;4205263;28;20036;-71
2022/04/16 01:51:39;;;;;;;16.95;9.40;;;;;;;4.79;100.00;99935.38;4210394;27;20056;-71
2022/04/16 01:53:39;;;;;;;19.50;10.60;;;;;;;4.79;100.00;99940.06;4206235;28;20050;-71
2022/04/16 01:55:40;;;;;;;19.95;10.35;;;;;;;4.73;100.00;99944.84;4204596;28;20388;-71
2022/04/16 01:57:42;;;;;;;20.15;11.13;;;;;;;4.74;100.00;99948.41;4205723;27;20048;-71
2022/04/16 01:59:42;;;;;;;19.60;10.40;;;;;;;4.70;100.00;99947.34;4203649;28;20051;-71
2022/04/16 02:01:42;;;;;;;17.67;9.85;;;;;;;4.72;100.00;99945.97;4208979;27;20036;-71
2022/04/16 02:03:43;;;;;;;15.40;9.15;;;;;;;4.69;100.00;99943.00;4204748;28;20409;-71
2022/04/16 02:05:43;;;;;;;18.35;10.18;;;;;;;4.64;100.00;99940.38;4206454;28;20056;-71
2022/04/16 02:07:43;;;;;;;19.08;9.55;;;;;;;4.64;100.00;99946.66;4203692;28;20048;-71
2022/04/16 02:09:44;;;;;;;18.73;9.13;;;;;;;4.65;100.00;99944.72;4204183;28;20135;-71
2022/04/16 02:11:44;;;;;;;19.00;9.68;;;;;;;4.63;100.00;99941.47;4204663;28;20043;-71
2022/04/16 02:13:44;;;;;;;17.90;9.82;;;;;;;4.64;100.00;99938.44;4204515;28;20040;-71
2022/04/16 02:15:45;;;;;;;17.52;9.35;;;;;;;4.62;100.00;99940.66;4208905;28;20028;-71
2022/04/16 02:17:45;;;;;;;19.38;9.50;;;;;;;4.59;100.00;99937.72;4203905;28;20040;-71
2022/04/16 02:19:48;;;;;;;14.70;9.07;;;;;;;4.61;100.00;99932.72;4204008;28;20048;-71
2022/04/16 02:21:49;;;;;;;18.88;10.27;;;;;;;4.59;100.00;99937.72;4203865;28;20066;-71
2022/04/16 02:23:51;;;;;;;18.92;9.85;;;;;;;4.58;100.00;99944.31;4203928;28;20040;-71
2022/04/16 02:25:53;;;;;;;18.95;10.77;;;;;;;4.50;100.00;99943.91;4204152;28;20550;-71
2022/04/16 02:27:53;;;;;;;25.45;12.27;;;;;;;4.46;100.00;99940.13;4204489;28;20036;-71
2022/04/16 02:29:53;;;;;;;24.42;12.35;;;;;;;4.54;100.00;99949.56;4215340;27;20503;-71
2022/04/16 02:31:54;;;;;;;24.88;11.85;;;;;;;4.42;100.00;99947.34;4203885;28;20040;-71
2022/04/16 02:33:58;;;;;;;23.60;12.57;;;;;;;4.39;100.00;99944.38;4207481;28;20035;-71
2022/04/16 02:35:58;;;;;;;24.75;11.55;;;;;;;4.30;100.00;99941.50;4206492;27;20043;-71
2022/04/16 02:37:59;;;;;;;24.42;11.13;;;;;;;4.27;100.00;99944.84;4215633;28;20043;-71
2022/04/16 02:39:59;;;;;;;25.55;11.30;;;;;;;4.21;100.00;99944.13;4208216;28;20404;-71
2022/04/16 02:41:59;;;;;;;22.92;9.80;;;;;;;4.18;100.00;99946.66;4205142;27;20372;-71
2022/04/16 02:44:00;;;;;;;25.17;12.10;;;;;;;4.21;100.00;99949.59;4204799;28;20036;-71
2022/04/16 02:48:20;;;;;;;21.80;10.18;;;;;;;4.22;100.00;99950.44;4202954;28;20480;-71
2022/04/16 02:50:24;;;;;;;17.38;9.57;;;;;;;4.25;100.00;99963.53;4205879;28;20042;-71
2022/04/16 02:52:25;;;;;;;18.95;10.02;;;;;;;4.19;100.00;99953.75;4203610;28;20036;-71
2022/04/16 02:54:25;;;;;;;21.60;10.38;;;;;;;4.24;100.00;99967.38;4209904;28;20511;-71
2022/04/16 02:56:25;;;;;;;20.33;10.55;;;;;;;4.19;100.00;99959.25;4203644;28;20472;-71
2022/04/16 02:58:26;;;;;;;22.00;10.23;;;;;;;4.18;100.00;99952.13;4202943;28;20044;-71
2022/04/16 03:00:26;;;;;;;22.00;10.50;;;;;;;4.19;100.00;99959.25;4203438;28;20044;-71
2022/04/16 03:02:27;;;;;;;17.88;9.13;;;;;;;4.26;100.00;99964.34;4203301;28;20117;-71
2022/04/16 03:04:27;;;;;;;16.73;8.93;;;;;;;4.26;100.00;99967.06;4210088;28;20048;-71
2022/04/16 03:06:28;;;;;;;16.60;9.05;;;;;;;4.24;100.00;99953.69;4207604;28;20044;-71
2022/04/16 03:08:28;;;;;;;14.50;8.35;;;;;;;4.21;100.00;99962.47;4202216;28;20047;-71
2022/04/16 03:10:29;;;;;;;18.42;9.70;;;;;;;4.21;100.00;99959.75;4205469;28;20162;-71
2022/04/16 03:12:48;;;;;;;17.13;8.95;;;;;;;4.19;100.00;99965.53;4203599;28;20055;-71
2022/04/16 03:19:26;;;;;;;14.68;7.88;;;;;;;4.09;99.79;99971.19;4208219;28;20654;-71
2022/04/16 03:21:26;;;;;;;17.27;8.57;;;;;;;4.03;100.00;99972.38;4208189;28;20048;-71
2022/04/16 03:23:28;;;;;;;17.25;9.10;;;;;;;4.06;100.00;99971.78;4207861;28;20127;-71
2022/04/16 03:25:29;;;;;;;16.45;8.45;;;;;;;4.10;100.00;99977.47;4203310;28;20040;-71
2022/04/16 03:27:29;;;;;;;13.18;7.82;;;;;;;4.17;99.70;99967.75;4202673;28;20430;-71
2022/04/16 03:29:29;;;;;;;13.70;7.90;;;;;;;4.10;98.88;99970.06;4202564;28;20518;-71
2022/04/16 03:31:29;;;;;;;15.15;8.27;;;;;;;4.09;99.95;99973.09;4203098;28;20040;-71
2022/04/16 03:33:31;;;;;;;14.30;8.20;;;;;;;4.04;100.00;99976.72;4203478;28;20264;-71
2022/04/16 03:35:32;;;;;;;12.55;7.65;;;;;;;4.06;99.71;99973.72;4203179;28;20098;-71
2022/04/16 03:37:36;;;;;;;14.10;7.72;;;;;;;4.03;100.00;99983.31;4211998;28;20036;-71
2022/04/16 03:39:36;;;;;;;15.80;8.40;;;;;;;4.03;99.82;99974.28;4203213;28;20161;-71
2022/04/16 03:41:36;;;;;;;13.73;7.85;;;;;;;4.02;99.36;99984.44;4206475;28;20087;-71
2022/04/16 03:43:36;;;;;;;15.80;7.68;;;;;;;3.97;100.00;99992.72;4202392;28;20071;-71
2022/04/16 03:45:37;;;;;;;16.00;8.88;;;;;;;3.97;99.96;100002.88;4203129;28;20499;-71
2022/04/16 03:47:37;;;;;;;16.48;8.27;;;;;;;3.91;98.62;100000.22;4202330;28;20890;-72
2022/04/16 03:49:38;;;;;;;12.90;7.75;;;;;;;3.89;97.54;100007.13;4203021;28;20052;-71
2022/04/16 03:51:38;;;;;;;12.98;7.80;;;;;;;3.85;97.35;100001.41;4201668;28;20047;-71
2022/04/16 03:53:38;;;;;;;13.95;7.80;;;;;;;3.91;96.31;99993.94;4203115;28;20527;-71
2022/04/16 04:00:17;;;;;;;13.65;7.65;;;;;;;3.82;96.18;100001.19;4203204;28;20253;-71
2022/04/16 04:02:17;;;;;;;11.93;7.30;;;;;;;3.81;95.90;100005.84;4202744;28;20440;-71
2022/04/16 04:04:18;;;;;;;9.90;6.40;;;;;;;3.78;96.33;100014.63;4203131;28;20035;-71
2022/04/16 04:06:18;;;;;;;9.02;6.25;;;;;;;3.78;96.89;100013.84;4210754;28;20055;-71
2022/04/16 04:08:20;;;;;;;10.60;7.25;;;;;;;3.73;96.89;100020.22;4205188;28;20333;-71
2022/04/16 04:10:20;;;;;;;9.50;6.05;;;;;;;3.77;95.90;100023.16;4204686;28;20024;-71
2022/04/16 04:12:21;;;;;;;8.45;5.80;;;;;;;3.75;95.41;100012.50;4208833;28;20389;-71
2022/04/16 04:14:21;;;;;;;9.75;5.63;;;;;;;3.74;94.95;100018.28;4202957;28;20069;-71
2022/04/16 04:16:22;;;;;;;8.30;5.22;;;;;;;3.70;95.28;100020.78;4201645;28;20468;-71
2022/04/16 04:18:24;;;;;;;10.48;6.15;;;;;;;3.66;95.62;100019.75;4201101;28;20524;-71
2022/04/16 04:20:25;;;;;;;12.77;5.93;;;;;;;3.66;95.46;100014.28;4202915;28;20122;-70
2022/04/16 04:22:25;;;;;;;10.48;6.78;;;;;;;3.64;96.57;100021.94;4202235;28;20075;-71
2022/04/16 04:24:26;;;;;;;11.00;6.68;;;;;;;3.60;96.49;100023.66;4202944;28;20040;-71
2022/04/16 04:26:26;;;;;;;8.45;5.82;;;;;;;3.54;95.25;100036.59;4201997;28;20058;-71
2022/04/16 04:28:26;;;;;;;8.50;5.85;;;;;;;3.58;94.54;100050.53;4208085;28;20428;-71
2022/04/16 04:30:27;;;;;;;7.38;5.18;;;;;;;3.45;94.34;100056.69;4208305;27;20502;-71
2022/04/16 04:32:28;;;;;;;10.23;5.60;;;;;;;3.45;94.39;100062.16;4207374;28;20105;-71
2022/04/16 04:34:28;;;;;;;11.02;5.55;;;;;;;3.41;95.19;100061.94;4203046;28;20044;-71
2022/04/16 04:36:28;;;;;;;6.32;5.10;;;;;;;3.41;95.10;100066.59;4208652;28;20028;-71
2022/04/16 04:38:29;;;;;;;8.88;5.35;;;;;;;3.42;95.02;100068.22;4202132;28;20155;-72
2022/04/16 04:40:29;;;;;;;9.30;4.75;;;;;;;3.39;94.68;100064.13;4203065;28;20748;-72
2022/04/16 04:42:31;;;;;;;6.95;5.03;;;;;;;3.40;94.36;100070.44;4208291;27;20219;-71
2022/04/16 04:44:32;;;;;;;6.97;4.63;;;;;;;3.33;94.23;100065.31;4206164;28;20047;-71
2022/04/16 04:46:33;;;;;;;5.28;4.10;;;;;;;3.27;94.20;100072.78;4202593;28;20360;-71
2022/04/16 04:48:33;;;;;;;5.53;4.05;;;;;;;3.27;93.93;100067.28;4202618;28;20479;-71
2022/04/16 04:50:36;;;;;;;7.75;4.38;;;;;;;3.25;93.31;100074.16;4201336;28;20048;-71
2022/04/16 04:52:40;;;;;;;7.07;4.90;;;;;;;3.23;93.62;100079.94;4204495;28;20039;-71
2022/04/16 04:54:40;;;;;;;6.32;4.97;;;;;;;3.23;92.80;100070.91;4205357;28;20048;-71
2022/04/16 04:56:40;;;;;;;8.00;4.78;;;;;;;3.21;92.68;100073.91;4204618;28;20331;-71
2022/04/16 04:58:41;;;;;;;7.93;5.03;;;;;;;3.23;92.27;100076.41;4203488;28;20052;-71
2022/04/16 05:00:41;;;;;;;7.97;4.38;;;;;;;3.20;92.07;100069.56;4209623;28;20408;-72
2022/04/16 05:02:46;;;;;;;7.40;4.50;;;;;;;3.22;92.04;100077.47;4214005;27;20448;-72
2022/04/16 05:04:47;;;;;;;7.18;4.15;;;;;;;3.23;91.11;100069.00;4210949;27;20155;-72
2022/04/16 05:06:47;;;;;;;5.55;4.28;;;;;;;3.20;90.16;100075.03;4205276;28;20064;-72
2022/04/16 05:08:47;;;;;;;5.93;3.50;;;;;;;3.21;90.00;100079.41;4206789;28;20076;-72
2022/04/16 05:10:47;;;;;;;6.68;3.72;;;;;;;3.10;89.01;100081.44;4207684;28;20123;-72
2022/04/16 05:12:48;;;;;;;6.03;3.85;;;;;;;3.08;89.70;100086.38;4206337;28;20094;-72
2022/04/16 05:14:48;;;;;;;4.57;3.40;;;;;;;3.14;89.55;100084.38;4205219;28;20048;-72
2022/04/16 05:16:49;;;;;;;3.88;3.35;;;;;;;3.09;89.54;100087.19;4212093;27;20476;-72
2022/04/16 05:18:50;;;;;;;4.85;3.90;;;;;;;3.07;89.17;100081.22;4206707;28;20176;-72
2022/04/16 05:20:50;;;;;;;5.95;4.20;;;;;;;2.93;89.77;100088.44;4206173;28;20090;-73
2022/04/16 05:22:50;;;;;;;6.03;3.80;;;;;;;2.89;90.32;100101.06;4205078;28;20487;-73
2022/04/16 05:24:51;;;;;;;5.68;3.75;;;;;;;2.77;91.56;100105.00;4201998;28;20416;-72
2022/04/16 05:26:51;;;;;;;5.35;4.25;;;;;;;2.72;91.77;100096.81;4198778;28;20078;-72
2022/04/16 05:28:51;;;;;;;4.55;3.80;;;;;;;2.77;91.03;100099.53;4196554;28;20052;-73
2022/04/16 05:30:54;;;;;;;7.95;4.78;;;;;;;2.78;91.92;100106.63;4195424;28;20048;-73
2022/04/16 05:32:56;;;;;;;8.90;4.50;;;;;;;2.86;91.78;100110.66;4203087;28;20531;-72
2022/04/16 05:34:57;;;;;;;6.55;3.92;;;;;;;2.89;90.82;100110.06;4204492;27;20044;-73
2022/04/16 05:36:57;;;;;;;6.60;3.70;;;;;;;2.82;90.23;100112.34;4209371;27;20042;-73
2022/04/16 05:38:57;;;;;;;7.97;4.13;;;;;;;2.91;90.38;100110.63;4204001;28;20135;-73
2022/04/16 05:40:58;;;;;;;7.15;3.78;;;;;;;2.89;89.97;100111.97;4202193;28;20370;-73
2022/04/16 05:42:58;;;;;;;6.93;3.70;;;;;;;2.95;89.26;100119.84;4204699;27;20082;-72
2022/04/16 05:45:02;;;;;;;5.88;3.35;;;;;;;3.13;88.40;100120.25;4205242;28;20518;-72
2022/04/16 05:47:03;;;;;;;5.63;3.53;;;;;;;3.20;86.65;100124.25;4203726;28;20059;-73
2022/04/16 05:49:03;;;;;;;6.45;3.58;;;;;;;3.22;87.17;100127.53;4206523;28;20035;-73
2022/04/16 05:51:04;;;;;;;4.53;3.30;;;;;;;3.37;87.42;100126.56;4205854;28;20234;-73
2022/04/16 05:53:10;;;;;;;8.63;3.60;;;;;;;3.51;87.63;100132.97;4111380;27;20208;-72
2022/04/16 05:55:11;;;;;;;4.57;3.50;;;;;;;3.61;87.25;100130.09;4195072;28;20252;-72
2022/04/16 05:57:12;;;;;;;4.75;3.10;;;;;;;3.70;85.52;100130.28;4199750;28;20038;-72
2022/04/16 05:59:13;;;;;;;5.03;3.40;;;;;;;3.81;85.05;100126.31;4206530;27;20074;-72
2022/04/16 06:01:13;;;;;;;6.95;3.75;;;;;;;3.85;83.64;100124.63;4208782;28;20135;-73
2022/04/16 06:03:14;;;;;;;5.03;3.10;;;;;;;3.92;80.35;100129.75;4206091;28;20046;-72
2022/04/16 06:05:14;;;;;;;4.95;2.92;;;;;;;3.91;80.67;100134.41;4207434;27;20032;-72
2022/04/16 06:07:15;;;;;;;4.22;2.80;;;;;;;3.82;79.26;100130.69;4207093;28;20051;-73
2022/04/16 06:09:16;;;;;;;4.15;2.95;;;;;;;3.79;78.45;100144.13;4207139;27;20115;-73
2022/04/16 06:11:18;;;;;;;4.68;3.00;;;;;;;3.73;79.58;100139.84;4207191;27;20514;-73
2022/04/16 06:13:18;;;;;;;5.78;3.30;;;;;;;3.83;77.12;100140.53;4207807;27;20043;-73
2022/04/16 06:15:19;;;;;;;4.18;2.83;;;;;;;3.83;76.43;100145.19;4205881;28;20039;-73
2022/04/16 06:17:19;;;;;;;5.43;3.28;;;;;;;3.80;76.58;100154.78;4208478;27;20049;-73
2022/04/16 06:19:20;;;;;;;4.80;2.65;;;;;;;3.71;76.50;100145.59;4206690;28;20348;-72
2022/04/16 06:21:20;;;;;;;4.88;3.03;;;;;;;3.72;77.15;100139.00;4206400;28;20043;-72
2022/04/16 06:23:20;;;;;;;5.20;3.50;;;;;;;3.83;76.62;100156.97;4210641;27;20337;-72
2022/04/16 06:25:22;;;;;;;6.60;3.45;;;;;;;3.72;75.06;100155.44;4205469;28;20503;-72
2022/04/16 06:27:22;;;;;;;7.38;4.07;;;;;;;3.77;75.58;100160.84;4205935;28;20035;-72
2022/04/16 06:29:23;;;;;;;4.97;3.05;;;;;;;3.54;74.06;100169.88;4206320;27;20048;-72
2022/04/16 06:31:23;;;;;;;5.13;3.03;;;;;;;3.28;74.16;100172.88;4200746;28;20268;-73
2022/04/16 06:33:23;;;;;;;3.97;3.28;;;;;;;3.17;74.96;100171.34;4203436;28;20040;-72
2022/04/16 06:35:24;;;;;;;7.90;4.10;;;;;;;3.15;75.90;100179.03;4205709;28;20307;-72
2022/04/16 06:37:24;;;;;;;5.30;3.38;;;;;;;3.11;76.38;100180.69;4204801;28;20535;-72
2022/04/16 06:39:25;;;;;;;6.30;3.42;;;;;;;2.98;76.20;100184.94;4203403;28;20028;-72
2022/04/16 06:41:26;;;;;;;5.93;2.83;;;;;;;2.91;76.52;100180.88;4206516;28;20065;-72
2022/04/16 06:43:26;;;;;;;4.82;3.10;;;;;;;2.83;76.39;100192.44;4210675;27;20043;-72
2022/04/16 06:45:26;;;;;;;4.28;2.97;;;;;;;2.85;76.87;100193.78;4204948;28;20064;-72
2022/04/16 06:47:29;;;;;;;3.13;2.60;;;;;;;2.83;77.10;100187.78;4203041;28;20043;-72
2022/04/16 06:49:29;;;;;;;6.30;3.42;;;;;;;2.91;77.93;100189.91;4203020;28;20036;-72
2022/04/16 06:51:30;;;;;;;4.72;3.65;;;;;;;2.92;78.38;100191.53;4203358;28;20438;-72
2022/04/16 06:53:30;;;;;;;9.52;4.70;;;;;;;2.94;77.52;100193.97;4203480;28;20473;-72
2022/04/16 06:55:30;;;;;;;8.50;4.93;;;;;;;2.96;78.68;100186.28;4204890;28;20131;-72
2022/04/16 06:57:31;;;;;;;5.93;4.47;;;;;;;3.04;78.72;100199.34;4202323;28;20290;-73
2022/04/16 06:59:31;;;;;;;5.05;3.10;;;;;;;3.16;78.23;100191.59;4203053;28;20867;-73
2022/04/16 07:01:31;;;;;;;5.22;3.08;;;;;;;3.17;77.75;100212.38;4196251;28;20385;-73
2022/04/16 07:03:32;;;;;;;4.38;2.85;;;;;;;3.17;77.15;100203.34;4196882;28;20040;-72
2022/04/16 07:05:32;;;;;;;5.78;3.40;;;;;;;3.09;76.34;100213.00;4198117;28;20076;-72
2022/04/16 07:07:33;;;;;;;13.05;6.22;;;;;;;3.12;77.59;100201.47;4202445;28;20055;-72
2022/04/16 07:09:38;;;;;;;6.07;3.40;;;;;;;3.09;76.60;100213.00;4202118;28;20077;-72
2022/04/16 07:11:38;;;;;;;11.85;6.13;;;;;;;2.98;76.66;100208.69;4201907;28;20089;-72
2022/04/16 07:13:38;;;;;;;8.02;3.70;;;;;;;2.90;77.16;100217.53;4208626;27;20536;-72
2022/04/16 07:15:39;;;;;;;18.40;3.15;;;;;;;2.93;76.35;100215.03;4201236;28;20059;-72
2022/04/16 07:17:39;;;;;;;7.82;3.83;;;;;;;2.73;76.21;100202.34;4201695;28;20044;-72
2022/04/16 07:19:39;;;;;;;5.90;3.03;;;;;;;2.72;77.16;100214.34;4204315;28;20476;-72
2022/04/16 07:21:40;;;;;;;7.75;3.20;;;;;;;2.51;76.93;100208.22;4200151;28;20044;-72
2022/04/16 07:23:40;;;;;;;5.57;3.22;;;;;;;2.56;77.20;100212.81;4202369;28;20533;-72
2022/04/16 07:25:40;;;;;;;3.85;3.00;;;;;;;2.65;77.51;100213.88;4207564;27;20079;-72
2022/04/16 07:27:43;;;;;;;4.97;3.28;;;;;;;2.85;78.35;100212.09;4202505;28;20036;-72
2022/04/16 07:29:43;;;;;;;4.53;3.10;;;;;;;2.77;76.46;100219.78;4206137;27;20055;-72
2022/04/16 07:31:44;;;;;;;6.10;4.03;;;;;;;2.88;76.66;100222.44;4196154;28;20047;-72
2022/04/16 07:33:45;;;;;;;8.75;4.70;;;;;;;2.90;75.99;100229.28;4197061;28;20052;-72
2022/04/16 07:35:45;;;;;;;11.77;5.50;;;;;;;2.96;75.65;100227.31;4203873;28;20055;-72
2022/04/16 07:37:46;;;;;;;11.80;5.72;;;;;;;2.95;76.38;100228.41;4202223;28;20036;-72
2022/04/16 07:39:46;;;;;;;7.43;4.22;;;;;;;2.74;75.30;100230.50;4210883;27;20039;-72
2022/04/16 07:41:49;;;;;;;9.00;4.38;;;;;;;2.73;74.85;100221.47;4202887;28;20032;-72
2022/04/16 07:43:49;;;;;;;5.93;3.70;;;;;;;2.71;76.01;100226.38;4202940;28;20048;-72
2022/04/16 07:45:50;;;;;;;3.85;2.72;;;;;;;2.77;75.22;100227.19;4204330;28;20044;-72
2022/04/16 07:47:50;;;;;;;3.92;2.60;;;;;;;2.82;74.73;100235.34;4208230;27;20032;-72
2022/04/16 07:49:50;;;;;;;4.90;2.70;;;;;;;2.70;75.16;100229.41;4204544;28;20040;-72
2022/04/16 07:51:51;;;;;;;3.10;2.70;;;;;;;2.72;75.31;100233.47;4207002;27;20470;-72
2022/04/16 07:53:55;;;;;;;4.75;2.55;;;;;;;2.89;74.47;100237.75;4204216;28;20047;-72
2022/04/16 07:55:56;;;;;;;4.07;2.88;;;;;;;2.98;75.28;100231.41;4206082;28;20113;-72
2022/04/16 07:57:56;;;;;;;4.13;2.53;;;;;;;3.20;75.04;100246.53;4209403;28;20549;-72
2022/04/16 07:59:56;;;;;;;6.75;3.50;;;;;;;3.34;74.39;100244.78;4205035;28;20032;-72
2022/04/16 08:01:57;;;;;;;4.63;2.88;;;;;;;3.19;72.42;100247.66;4207863;28;20635;-72
2022/04/16 08:03:57;;;;;;;6.10;2.63;;;;;;;3.09;72.46;100252.09;4204282;28;20048;-72
2022/04/16 08:05:57;;;;;;;6.68;3.28;;;;;;;3.08;73.98;100253.19;4203152;28;20040;-72
2022/04/16 08:07:58;;;;;;;3.83;2.83;;;;;;;3.11;73.59;100251.81;4205941;28;20036;-72
2022/04/16 08:09:58;;;;;;;3.95;2.55;;;;;;;2.97;73.28;100257.09;4204353;28;20074;-72
2022/04/16 08:11:59;;;;;;;6.63;3.97;;;;;;;3.05;74.23;100251.03;4203161;28;20040;-72
2022/04/16 08:13:59;;;;;;;7.60;5.28;;;;;;;3.27;75.32;100247.84;4206611;28;20459;-71
2022/04/16 08:15:59;;;;;;;7.78;3.65;;;;;;;3.45;76.21;100249.06;4201413;28;20036;-71
2022/04/16 08:18:01;;;;;;;5.68;2.75;;;;;;;3.43;75.07;100255.94;4201519;28;20040;-71
2022/04/16 08:20:01;;;;;;;4.43;3.00;;;;;;;3.45;74.06;100262.72;4208009;28;20131;-72
2022/04/16 08:22:07;;;;;;;6.55;2.55;;;;;;;3.33;71.88;100265.84;4202379;28;20082;-72
2022/04/16 08:24:13;;;;;;;4.75;2.80;;;;;;;3.16;73.11;100270.09;4205217;27;20023;-72
2022/04/16 08:26:14;;;;;;;3.67;2.47;;;;;;;3.24;74.46;100266.75;4202915;28;20035;-72
2022/04/16 08:28:14;;;;;;;4.25;2.60;;;;;;;3.25;73.49;100269.22;4204873;28;20400;-72
2022/04/16 08:30:16;;;;;;;3.65;2.72;;;;;;;3.07;74.66;100265.25;4205455;28;20032;-72
2022/04/16 08:32:17;;;;;;;3.53;2.53;;;;;;;3.31;73.79;100268.06;4206242;28;20484;-72
2022/04/16 08:34:17;;;;;;;3.70;2.90;;;;;;;3.65;76.54;100265.28;4205534;28;20035;-72
2022/04/16 08:36:17;;;;;;;5.70;3.03;;;;;;;3.88;73.52;100274.63;4216763;28;20059;-72
2022/04/16 08:38:18;;;;;;;4.07;2.70;;;;;;;4.18;73.24;100280.88;4208513;27;20024;-72
2022/04/16 08:40:19;;;;;;;4.18;2.15;;;;;;;4.31;70.23;100280.19;4206904;28;20531;-72
2022/04/16 08:42:20;;;;;;;4.03;2.50;;;;;;;4.57;73.78;100268.91;4205831;28;20036;-72
2022/04/16 08:44:20;;;;;;;3.38;2.55;;;;;;;4.61;70.51;100278.16;4205402;28;20083;-72
2022/04/16 08:46:21;;;;;;;5.35;2.55;;;;;;;4.50;69.70;100278.28;4207789;28;20100;-72
2022/04/16 08:48:22;;;;;;;2.78;2.05;;;;;;;4.57;70.67;100277.13;4204658;28;20415;-72
2022/04/16 08:50:23;;;;;;;9.85;2.80;;;;;;;4.71;70.16;100283.50;4205635;28;20502;-72
2022/04/16 08:52:24;;;;;;;3.88;2.42;;;;;;;4.63;67.37;100284.16;4206048;28;20077;-72
2022/04/16 08:54:25;;;;;;;3.45;2.50;;;;;;;4.56;68.58;100284.53;4205625;28;20071;-72
2022/04/16 08:56:25;;;;;;;3.67;2.70;;;;;;;4.68;69.97;100281.34;4205676;28;20345;-72
2022/04/16 08:58:29;;;;;;;3.67;2.70;;;;;;;4.92;70.50;100282.09;4204101;28;20060;-72
2022/04/16 09:00:29;;;;;;;4.30;2.63;;;;;;;5.06;70.00;100284.94;4205522;28;20047;-72
2022/04/16 09:02:30;;;;;;;4.57;2.38;;;;;;;5.19;68.78;100277.84;4206665;28;20040;-72
2022/04/16 09:04:33;;;;;;;5.07;2.72;;;;;;;5.23;67.32;100278.91;4204831;28;20063;-71
2022/04/16 09:06:33;;;;;;;5.10;2.75;;;;;;;5.33;68.12;100286.97;4211121;28;20040;-71
2022/04/16 09:08:35;;;;;;;5.28;3.60;;;;;;;5.43;68.09;100278.56;4205336;28;20404;-71
2022/04/16 09:10:41;;;;;;;3.60;2.92;;;;;;;5.69;70.38;100278.13;4209802;28;20078;-72
2022/04/16 09:12:41;;;;;;;3.10;2.45;;;;;;;5.76;66.21;100284.84;4205979;28;20123;-72
2022/04/16 09:14:44;;;;;;;6.40;2.63;;;;;;;5.71;66.15;100281.38;4205214;28;20472;-72
2022/04/16 09:16:45;;;;;;;5.22;2.72;;;;;;;5.60;66.04;100284.31;4204444;28;20195;-72
2022/04/16 09:18:51;;;;;;;3.53;2.47;;;;;;;5.57;66.20;100282.16;4205389;28;20087;-72
2022/04/16 09:20:51;;;;;;;3.67;2.50;;;;;;;5.64;66.32;100284.53;4204764;28;20087;-72
2022/04/16 09:22:51;;;;;;;2.72;2.22;;;;;;;5.41;64.83;100288.22;4207226;28;20462;-72
2022/04/16 09:24:52;;;;;;;4.22;2.72;;;;;;;5.50;68.33;100280.94;4204984;28;20130;-72
2022/04/16 09:26:53;;;;;;;4.97;2.60;;;;;;;5.60;67.96;100284.31;4204188;28;20488;-72
2022/04/16 09:28:54;;;;;;;4.30;2.67;;;;;;;5.92;68.91;100288.16;4204919;28;20073;-72
2022/04/16 09:30:56;;;;;;;5.70;3.28;;;;;;;5.60;65.24;100292.53;4204803;28;20044;-72
2022/04/16 09:32:57;;;;;;;5.78;3.45;;;;;;;5.55;67.70;100291.84;4203392;28;20052;-72
2022/04/16 09:34:57;;;;;;;4.55;3.70;;;;;;;5.69;66.27;100302.84;4205003;28;20044;-72
2022/04/16 09:37:11;;;;;;;4.20;3.38;;;;;;;5.81;66.82;100301.25;4204048;28;20535;-72